createdAt,value
2019-03-26T00:01:38.189Z,89.56
2019-03-26T00:04:06.644Z,89.82
2019-03-26T00:06:35.302Z,90.10
2019-03-26T00:09:06.109Z,90.05
2019-03-26T00:11:34.582Z,90.03
2019-03-26T00:14:03.129Z,90.22
2019-03-26T00:16:31.647Z,90.20
2019-03-26T00:19:00.518Z,90.27
2019-03-26T00:21:28.999Z,90.16
2019-03-26T00:23:57.508Z,90.12
2019-03-26T00:26:25.975Z,90.15
2019-03-26T00:28:54.437Z,90.19
2019-03-26T00:31:24.534Z,90.32
2019-03-26T00:33:52.996Z,90.36
2019-03-26T00:36:21.479Z,90.34
2019-03-26T00:38:50.117Z,90.41
2019-03-26T00:41:18.766Z,90.21
2019-03-26T00:43:47.220Z,90.29
2019-03-26T00:46:15.708Z,90.31
2019-03-26T00:48:44.169Z,90.37
2019-03-26T00:51:12.657Z,90.52
2019-03-26T00:53:41.144Z,90.66
2019-03-26T00:56:09.616Z,90.74
2019-03-26T00:58:38.073Z,90.87
2019-03-26T01:01:06.589Z,90.88
2019-03-26T01:03:35.111Z,90.90
2019-03-26T01:06:03.595Z,90.79
2019-03-26T01:08:32.103Z,90.63
2019-03-26T01:11:00.584Z,90.49
2019-03-26T01:13:29.143Z,90.53
2019-03-26T01:15:57.656Z,90.61
2019-03-26T01:18:26.124Z,90.65
2019-03-26T01:20:55.618Z,90.77
2019-03-26T01:23:24.099Z,90.85
2019-03-26T01:25:52.547Z,90.78
2019-03-26T01:28:20.996Z,90.67
2019-03-26T01:30:49.499Z,90.44
2019-03-26T01:33:17.959Z,90.30
2019-03-26T01:35:46.437Z,90.39
2019-03-26T01:38:14.935Z,90.31
2019-03-26T01:40:43.461Z,90.57
2019-03-26T01:43:11.928Z,90.61
2019-03-26T01:45:40.563Z,90.58
2019-03-26T01:48:09.027Z,90.61
2019-03-26T01:50:37.501Z,90.64
2019-03-26T01:53:06.026Z,90.80
2019-03-26T01:55:34.962Z,90.84
2019-03-26T01:58:03.420Z,90.77
2019-03-26T02:00:31.913Z,90.86
2019-03-26T02:03:00.391Z,90.84
2019-03-26T02:05:28.873Z,90.85
2019-03-26T02:07:57.364Z,90.83
2019-03-26T02:10:25.832Z,90.71
2019-03-26T02:12:54.328Z,90.73
2019-03-26T02:15:30.084Z,90.76
2019-03-26T02:17:59.565Z,90.90
2019-03-26T02:20:28.114Z,90.92
2019-03-26T02:22:57.160Z,91.04
2019-03-26T02:25:25.629Z,90.98
2019-03-26T02:27:54.174Z,91.08
2019-03-26T02:30:22.660Z,91.06
2019-03-26T02:32:51.124Z,90.96
2019-03-26T02:35:19.633Z,90.93
2019-03-26T02:37:49.692Z,90.85
2019-03-26T02:40:18.185Z,90.86
2019-03-26T02:42:46.630Z,90.76
2019-03-26T02:45:15.135Z,90.86
2019-03-26T02:47:43.667Z,90.87
2019-03-26T02:50:12.264Z,90.85
2019-03-26T02:52:40.780Z,90.87
2019-03-26T02:55:09.309Z,90.86
2019-03-26T02:57:37.771Z,90.82
2019-03-26T03:00:09.554Z,90.75
2019-03-26T03:02:37.984Z,90.74
2019-03-26T03:05:06.530Z,90.71
2019-03-26T03:07:34.995Z,90.45
2019-03-26T03:10:04.995Z,90.41
2019-03-26T03:12:33.457Z,90.44
2019-03-26T03:15:01.965Z,90.73
2019-03-26T03:17:30.431Z,90.77
2019-03-26T03:20:01.002Z,91.07
2019-03-26T03:22:29.867Z,91.26
2019-03-26T03:24:58.466Z,91.61
2019-03-26T03:27:26.947Z,91.86
2019-03-26T03:29:55.476Z,92.15
2019-03-26T03:32:23.956Z,92.38
2019-03-26T03:34:52.434Z,92.54
2019-03-26T03:37:20.928Z,92.70
2019-03-26T03:39:49.402Z,92.50
2019-03-26T03:42:20.929Z,92.49
2019-03-26T03:44:49.412Z,92.45
2019-03-26T03:47:19.766Z,92.34
2019-03-26T03:49:48.304Z,92.19
2019-03-26T03:52:18.492Z,91.99
2019-03-26T03:54:48.629Z,91.72
2019-03-26T03:57:18.237Z,91.54
2019-03-26T03:59:47.419Z,91.50
2019-03-26T04:02:15.899Z,91.35
2019-03-26T04:04:44.347Z,91.18
2019-03-26T04:07:12.857Z,90.96
2019-03-26T04:09:41.380Z,90.55
2019-03-26T04:12:09.804Z,90.55
2019-03-26T04:14:38.298Z,89.84
2019-03-26T04:17:06.785Z,89.75
2019-03-26T04:19:35.261Z,89.41
2019-03-26T04:22:03.758Z,89.25
2019-03-26T04:24:32.215Z,89.06
2019-03-26T04:27:00.855Z,88.94
2019-03-26T04:29:29.373Z,88.69
2019-03-26T04:31:57.848Z,88.45
2019-03-26T04:34:26.328Z,88.33
2019-03-26T04:36:54.842Z,88.07
2019-03-26T04:39:23.301Z,87.58
2019-03-26T04:41:51.754Z,87.24
2019-03-26T04:44:20.240Z,87.12
2019-03-26T04:46:48.731Z,86.89
2019-03-26T04:49:17.206Z,86.62
2019-03-26T04:51:45.718Z,86.32
2019-03-26T04:54:14.279Z,86.02
2019-03-26T04:56:42.761Z,85.75
2019-03-26T04:59:11.286Z,85.54
2019-03-26T05:01:39.753Z,85.19
2019-03-26T05:04:08.208Z,85.10
2019-03-26T05:06:38.303Z,84.93
2019-03-26T05:09:06.952Z,84.95
2019-03-26T05:11:35.411Z,84.82
2019-03-26T05:14:03.925Z,84.68
2019-03-26T05:16:32.386Z,84.64
2019-03-26T05:19:00.842Z,84.54
2019-03-26T05:21:29.324Z,84.18
2019-03-26T05:23:57.798Z,84.18
2019-03-26T05:26:26.255Z,84.29
2019-03-26T05:28:56.517Z,84.29
2019-03-26T05:31:24.980Z,84.02
2019-03-26T05:33:53.443Z,84.00
2019-03-26T05:36:21.968Z,83.63
2019-03-26T05:38:50.416Z,83.62
2019-03-26T05:41:18.873Z,82.97
2019-03-26T05:43:47.358Z,83.11
2019-03-26T05:46:15.821Z,82.51
2019-03-26T05:48:44.282Z,82.71
2019-03-26T05:51:12.797Z,82.71
2019-03-26T05:53:41.269Z,82.22
2019-03-26T05:56:09.741Z,82.06
2019-03-26T05:58:38.259Z,81.63
2019-03-26T06:01:06.722Z,81.63
2019-03-26T06:03:35.183Z,82.75
2019-03-26T06:06:03.757Z,82.75
2019-03-26T06:08:32.223Z,83.13
2019-03-26T06:11:00.676Z,81.99
2019-03-26T06:13:29.188Z,81.99
2019-03-26T06:15:57.647Z,81.58
2019-03-26T06:18:26.130Z,81.43
2019-03-26T06:20:54.621Z,81.21
2019-03-26T06:23:23.104Z,81.37
2019-03-26T06:25:51.587Z,80.96
2019-03-26T06:28:20.106Z,80.81
2019-03-26T06:30:49.725Z,80.81
2019-03-26T06:33:18.200Z,80.82
2019-03-26T06:35:46.712Z,79.97
2019-03-26T06:38:15.177Z,80.11
2019-03-26T06:40:43.644Z,80.11
2019-03-26T06:43:12.131Z,80.39
2019-03-26T06:45:40.592Z,80.22
2019-03-26T06:48:09.080Z,79.60
2019-03-26T06:50:37.581Z,79.08
2019-03-26T06:53:06.042Z,79.24
2019-03-26T06:55:34.784Z,79.30
2019-03-26T06:58:03.287Z,78.60
2019-03-26T07:00:34.956Z,77.85
2019-03-26T07:03:05.139Z,77.63
2019-03-26T07:05:33.793Z,77.10
2019-03-26T07:08:02.258Z,76.77
2019-03-26T07:10:30.976Z,76.76
2019-03-26T07:12:59.653Z,76.65
2019-03-26T07:15:28.122Z,76.15
2019-03-26T07:17:56.599Z,76.19
2019-03-26T07:20:25.152Z,75.45
2019-03-26T07:22:53.596Z,74.38
2019-03-26T07:25:22.129Z,74.11
2019-03-26T07:27:50.633Z,73.64
2019-03-26T07:30:36.488Z,73.96
2019-03-26T07:33:05.330Z,73.65
2019-03-26T07:35:33.786Z,72.70
2019-03-26T07:38:02.262Z,72.93
2019-03-26T07:40:30.762Z,72.52
2019-03-26T07:42:59.247Z,72.27
2019-03-26T07:45:27.707Z,72.17
2019-03-26T07:47:56.210Z,72.23
2019-03-26T07:50:24.690Z,72.16
2019-03-26T07:52:53.136Z,71.74
2019-03-26T07:55:21.623Z,71.69
2019-03-26T07:57:50.079Z,71.57
2019-03-26T08:00:21.718Z,71.51
2019-03-26T08:02:50.212Z,71.72
2019-03-26T08:05:29.338Z,71.75
2019-03-26T08:07:58.345Z,71.93
2019-03-26T08:10:19.099Z,72.32
2019-03-26T08:12:47.621Z,72.54
2019-03-26T08:15:16.116Z,72.54
2019-03-26T08:17:45.482Z,72.23
2019-03-26T08:20:15.576Z,72.33
2019-03-26T08:22:44.029Z,71.99
2019-03-26T08:25:12.567Z,71.76
2019-03-26T08:27:41.024Z,71.04
2019-03-26T08:30:09.726Z,71.08
2019-03-26T08:32:38.216Z,70.83
2019-03-26T08:35:07.178Z,70.47
2019-03-26T08:37:35.632Z,70.53
2019-03-26T08:40:07.071Z,70.66
2019-03-26T08:42:35.529Z,70.61
2019-03-26T08:45:06.031Z,70.28
2019-03-26T08:47:34.538Z,70.64
2019-03-26T08:50:03.227Z,70.33
2019-03-26T08:52:31.687Z,69.72
2019-03-26T08:55:00.363Z,68.93
2019-03-26T08:57:28.836Z,67.97
2019-03-26T08:59:57.284Z,67.18
2019-03-26T09:02:25.783Z,67.36
2019-03-26T09:04:54.241Z,67.26
2019-03-26T09:07:22.703Z,66.66
2019-03-26T09:09:51.193Z,66.64
2019-03-26T09:12:19.661Z,65.73
2019-03-26T09:14:48.130Z,65.49
2019-03-26T09:17:19.661Z,66.12
2019-03-26T09:19:46.813Z,66.12
2019-03-26T09:22:15.274Z,66.34
2019-03-26T09:24:43.779Z,66.20
2019-03-26T09:27:12.305Z,66.07
2019-03-26T09:29:40.776Z,66.17
2019-03-26T09:32:09.312Z,65.90
2019-03-26T09:34:37.776Z,65.73
2019-03-26T09:37:06.536Z,65.21
2019-03-26T09:39:38.226Z,65.74
2019-03-26T09:42:07.377Z,66.37
2019-03-26T09:44:35.854Z,67.04
2019-03-26T09:47:15.529Z,67.42
2019-03-26T09:49:34.497Z,67.22
2019-03-26T09:52:02.998Z,65.95
2019-03-26T09:54:31.472Z,64.62
2019-03-26T09:57:00.995Z,64.39
2019-03-26T09:59:29.496Z,64.90
2019-03-26T10:01:57.948Z,64.08
2019-03-26T10:04:26.409Z,63.55
2019-03-26T10:06:54.914Z,63.86
2019-03-26T10:09:23.362Z,65.55
2019-03-26T10:11:52.494Z,67.61
2019-03-26T10:14:21.005Z,68.38
2019-03-26T10:16:49.479Z,68.29
2019-03-26T10:19:17.938Z,68.76
2019-03-26T10:21:46.424Z,67.96
2019-03-26T10:24:14.956Z,67.07
2019-03-26T10:26:43.435Z,67.31
2019-03-26T10:29:28.810Z,65.62
2019-03-26T10:31:42.116Z,62.90
2019-03-26T10:34:10.643Z,62.71
2019-03-26T10:36:41.595Z,63.60
2019-03-26T10:39:10.146Z,67.85
2019-03-26T10:41:38.614Z,70.78
2019-03-26T10:44:07.172Z,72.39
2019-03-26T10:46:35.647Z,73.37
2019-03-26T10:49:04.229Z,74.13
2019-03-26T10:51:32.696Z,74.19
2019-03-26T10:54:01.215Z,73.26
2019-03-26T10:56:32.540Z,73.42
2019-03-26T10:58:59.956Z,72.68
2019-03-26T11:01:28.413Z,72.80
2019-03-26T11:03:56.870Z,72.62
2019-03-26T11:06:25.427Z,73.15
2019-03-26T11:08:53.896Z,72.93
2019-03-26T11:11:22.367Z,73.14
2019-03-26T11:13:50.873Z,72.90
2019-03-26T11:16:19.342Z,72.40
2019-03-26T11:18:47.819Z,72.27
2019-03-26T11:21:16.341Z,72.25
2019-03-26T11:23:44.860Z,71.35
2019-03-26T11:26:13.328Z,70.84
2019-03-26T11:28:41.826Z,70.03
2019-03-26T11:31:10.290Z,70.75
2019-03-26T11:33:38.755Z,69.77
2019-03-26T11:36:07.276Z,70.19
2019-03-26T11:38:35.742Z,71.33
2019-03-26T11:41:04.386Z,70.10
2019-03-26T11:43:32.897Z,69.05
2019-03-26T11:46:01.403Z,68.31
2019-03-26T11:48:29.825Z,68.54
2019-03-26T11:50:58.313Z,68.65
2019-03-26T11:53:26.778Z,67.93
2019-03-26T11:55:55.254Z,68.46
2019-03-26T11:58:30.314Z,68.40
2019-03-26T12:00:53.949Z,67.80
2019-03-26T12:03:22.410Z,67.05
2019-03-26T12:05:50.935Z,66.96
2019-03-26T12:08:19.485Z,67.52
2019-03-26T12:10:49.513Z,67.45
2019-03-26T12:13:18.031Z,67.51
2019-03-26T12:15:46.509Z,68.06
2019-03-26T12:18:14.979Z,67.08
2019-03-26T12:20:43.476Z,66.83
2019-03-26T12:23:11.947Z,66.47
2019-03-26T12:25:40.410Z,65.42
2019-03-26T12:28:08.887Z,63.57
2019-03-26T12:30:37.581Z,63.43
2019-03-26T12:33:06.474Z,61.87
2019-03-26T12:35:34.984Z,60.56
2019-03-26T12:38:06.605Z,60.86
2019-03-26T12:40:35.093Z,60.21
2019-03-26T12:43:04.043Z,60.26
2019-03-26T12:45:32.505Z,59.63
2019-03-26T12:48:00.964Z,57.65
2019-03-26T12:50:32.031Z,57.15
2019-03-26T12:52:59.685Z,57.73
2019-03-26T12:55:28.144Z,56.03
2019-03-26T12:57:56.645Z,55.92
2019-03-26T13:00:32.527Z,55.16
2019-03-26T13:03:01.703Z,55.32
2019-03-26T13:05:30.168Z,55.22
2019-03-26T13:07:58.624Z,54.51
2019-03-26T13:10:27.130Z,53.78
2019-03-26T13:12:55.589Z,53.00
2019-03-26T13:15:24.048Z,53.36
2019-03-26T13:17:52.540Z,53.79
2019-03-26T13:20:21.023Z,53.61
2019-03-26T13:22:49.480Z,53.94
2019-03-26T13:25:17.955Z,54.38
2019-03-26T13:27:46.416Z,53.05
2019-03-26T13:30:16.727Z,53.08
2019-03-26T13:32:45.256Z,51.67
2019-03-26T13:35:13.776Z,52.25
2019-03-26T13:37:42.302Z,51.65
2019-03-26T13:40:11.146Z,52.13
2019-03-26T13:42:39.619Z,52.41
2019-03-26T13:45:08.824Z,52.08
2019-03-26T13:47:37.341Z,51.80
2019-03-26T13:50:09.662Z,50.86
2019-03-26T13:52:38.129Z,51.58
2019-03-26T13:55:08.075Z,52.34
2019-03-26T13:57:36.522Z,51.84
2019-03-26T14:00:07.591Z,52.00
2019-03-26T14:02:36.158Z,51.19
2019-03-26T14:05:07.803Z,51.05
2019-03-26T14:07:36.870Z,51.00
2019-03-26T14:10:06.615Z,51.02
2019-03-26T14:12:35.073Z,50.22
2019-03-26T14:15:04.044Z,50.21
2019-03-26T14:17:32.578Z,49.76
2019-03-26T14:20:01.040Z,49.25
2019-03-26T14:22:29.578Z,49.82
2019-03-26T14:24:58.092Z,49.80
2019-03-26T14:27:26.544Z,49.52
2019-03-26T14:29:55.082Z,48.92
2019-03-26T14:32:23.597Z,49.64
2019-03-26T14:34:52.407Z,50.28
2019-03-26T14:37:20.862Z,50.47
2019-03-26T14:39:49.371Z,50.26
2019-03-26T14:42:17.826Z,49.36
2019-03-26T14:44:46.288Z,49.54
2019-03-26T14:47:15.121Z,49.83
2019-03-26T14:49:43.593Z,50.47
2019-03-26T14:52:12.050Z,50.63
2019-03-26T14:54:40.553Z,50.55
2019-03-26T14:57:09.018Z,49.16
2019-03-26T14:59:37.468Z,48.94
2019-03-26T15:02:05.971Z,48.30
2019-03-26T15:04:34.444Z,48.39
2019-03-26T15:07:02.981Z,47.88
2019-03-26T15:09:31.547Z,48.26
2019-03-26T15:12:00.009Z,48.95
2019-03-26T15:14:28.460Z,49.13
2019-03-26T15:16:56.978Z,48.58
2019-03-26T15:19:25.452Z,47.80
2019-03-26T15:21:53.938Z,48.75
2019-03-26T15:24:22.407Z,48.63
2019-03-26T15:26:50.889Z,48.47
2019-03-26T15:29:19.351Z,48.16
2019-03-26T15:31:47.854Z,48.78
2019-03-26T15:34:16.308Z,49.13
2019-03-26T15:36:44.763Z,49.25
2019-03-26T15:39:13.293Z,49.85
2019-03-26T15:41:41.743Z,50.67
2019-03-26T15:44:10.201Z,50.92
2019-03-26T15:46:38.695Z,50.52
2019-03-26T15:49:08.248Z,50.94
2019-03-26T15:51:36.693Z,50.03
2019-03-26T15:54:05.183Z,48.54
2019-03-26T15:56:33.658Z,49.51
2019-03-26T15:59:02.196Z,49.96
2019-03-26T16:01:30.703Z,50.53
2019-03-26T16:03:59.161Z,50.69
2019-03-26T16:06:27.632Z,49.42
2019-03-26T16:08:56.215Z,49.53
2019-03-26T16:11:35.198Z,49.90
2019-03-26T16:13:54.898Z,50.15
2019-03-26T16:16:23.432Z,50.38
2019-03-26T16:18:51.881Z,50.52
2019-03-26T16:21:20.357Z,50.82
2019-03-26T16:23:48.978Z,50.93
2019-03-26T16:26:17.449Z,49.92
2019-03-26T16:28:45.917Z,49.81
2019-03-26T16:31:14.427Z,49.52
2019-03-26T16:33:42.889Z,50.01
2019-03-26T16:36:11.379Z,49.85
2019-03-26T16:38:39.863Z,49.59
2019-03-26T16:41:08.332Z,49.07
2019-03-26T16:43:36.774Z,49.05
2019-03-26T16:46:05.282Z,49.43
2019-03-26T16:48:33.742Z,49.81
2019-03-26T16:51:02.667Z,50.24
2019-03-26T16:53:31.195Z,50.72
2019-03-26T16:55:59.677Z,51.04
2019-03-26T16:58:29.766Z,51.30
2019-03-26T17:00:58.279Z,51.70
2019-03-26T17:03:31.545Z,51.84
2019-03-26T17:05:56.958Z,52.22
2019-03-26T17:08:25.466Z,52.52
2019-03-26T17:10:53.929Z,52.98
2019-03-26T17:13:22.398Z,53.42
2019-03-26T17:15:51.041Z,53.47
2019-03-26T17:18:19.966Z,53.01
2019-03-26T17:20:48.403Z,52.74
2019-03-26T17:23:16.915Z,52.70
2019-03-26T17:25:45.364Z,52.52
2019-03-26T17:28:13.837Z,52.49
2019-03-26T17:30:42.381Z,52.26
2019-03-26T17:33:10.839Z,52.64
2019-03-26T17:35:39.303Z,53.11
2019-03-26T17:38:07.876Z,53.67
2019-03-26T17:40:36.339Z,54.13
2019-03-26T17:43:04.804Z,54.47
2019-03-26T17:45:33.429Z,54.72
2019-03-26T17:48:01.948Z,55.00
2019-03-26T17:50:30.399Z,55.27
2019-03-26T17:52:59.098Z,55.47
2019-03-26T17:55:27.552Z,56.21
2019-03-26T17:57:56.015Z,56.26
2019-03-26T18:00:36.624Z,56.05
2019-03-26T18:03:05.419Z,56.11
2019-03-26T18:05:33.893Z,56.29
2019-03-26T18:08:02.469Z,56.40
2019-03-26T18:10:30.927Z,56.59
2019-03-26T18:12:59.380Z,57.02
2019-03-26T18:15:27.892Z,57.22
2019-03-26T18:17:56.366Z,57.34
2019-03-26T18:20:32.397Z,57.55
2019-03-26T18:22:56.029Z,57.62
2019-03-26T18:25:24.491Z,57.83
2019-03-26T18:27:54.147Z,58.05
2019-03-26T18:30:22.878Z,58.04
2019-03-26T18:32:51.351Z,58.22
2019-03-26T18:35:19.832Z,58.33
2019-03-26T18:37:48.346Z,58.38
2019-03-26T18:40:16.887Z,58.40
2019-03-26T18:42:45.350Z,58.47
2019-03-26T18:45:14.030Z,58.43
2019-03-26T18:47:42.493Z,58.45
2019-03-26T18:50:11.184Z,58.36
2019-03-26T18:52:39.676Z,58.30
2019-03-26T18:55:09.113Z,58.44
2019-03-26T18:57:37.569Z,58.55
2019-03-26T19:00:08.117Z,58.46
2019-03-26T19:02:36.662Z,58.57
2019-03-26T19:05:07.012Z,58.66
2019-03-26T19:07:35.507Z,58.78
2019-03-26T19:10:06.970Z,58.81
2019-03-26T19:12:35.427Z,58.92
2019-03-26T19:15:05.201Z,59.03
2019-03-26T19:17:33.671Z,59.10
2019-03-26T19:20:02.135Z,59.30
2019-03-26T19:22:32.168Z,59.35
2019-03-26T19:25:00.638Z,59.51
2019-03-26T19:27:29.112Z,59.75
2019-03-26T19:29:57.599Z,60.01
2019-03-26T19:32:26.055Z,60.27
2019-03-26T19:34:54.529Z,60.44
2019-03-26T19:37:23.028Z,60.67
2019-03-26T19:39:51.483Z,60.91
2019-03-26T19:42:19.956Z,61.05
2019-03-26T19:44:48.459Z,61.26
2019-03-26T19:47:16.920Z,61.44
2019-03-26T19:49:45.377Z,61.66
2019-03-26T19:52:13.905Z,61.92
2019-03-26T19:54:42.373Z,62.13
2019-03-26T19:57:11.017Z,62.35
2019-03-26T19:59:40.805Z,62.52
2019-03-26T20:02:09.286Z,62.72
2019-03-26T20:04:37.788Z,62.92
2019-03-26T20:07:07.085Z,63.11
2019-03-26T20:09:35.545Z,63.35
2019-03-26T20:12:04.026Z,63.54
2019-03-26T20:14:32.530Z,63.76
2019-03-26T20:17:00.985Z,63.93
2019-03-26T20:19:29.448Z,64.15
2019-03-26T20:21:57.974Z,64.15
2019-03-26T20:24:26.434Z,64.23
2019-03-26T20:26:54.900Z,64.36
2019-03-26T20:29:25.049Z,64.89
2019-03-26T20:31:53.508Z,64.89
2019-03-26T20:34:21.993Z,64.83
2019-03-26T20:36:50.531Z,64.82
2019-03-26T20:39:18.993Z,65.10
2019-03-26T20:41:47.455Z,65.24
2019-03-26T20:44:15.951Z,65.42
2019-03-26T20:46:45.285Z,65.24
2019-03-26T20:49:13.760Z,65.24
2019-03-26T20:51:42.413Z,65.17
2019-03-26T20:54:10.887Z,65.17
2019-03-26T20:56:40.864Z,66.00
2019-03-26T20:59:10.126Z,65.81
2019-03-26T21:01:38.702Z,65.81
2019-03-26T21:04:07.205Z,66.25
2019-03-26T21:06:35.789Z,66.24
2019-03-26T21:09:05.600Z,66.19
2019-03-26T21:11:34.069Z,66.19
2019-03-26T21:14:02.589Z,66.83
2019-03-26T21:16:31.046Z,67.01
2019-03-26T21:18:59.521Z,67.66
2019-03-26T21:21:28.014Z,67.87
2019-03-26T21:23:56.483Z,67.51
2019-03-26T21:26:24.958Z,67.51
2019-03-26T21:28:53.500Z,67.25
2019-03-26T21:31:21.993Z,67.25
2019-03-26T21:33:50.450Z,67.83
2019-03-26T21:36:18.952Z,68.36
2019-03-26T21:38:47.409Z,68.56
2019-03-26T21:41:15.958Z,68.51
2019-03-26T21:43:44.459Z,68.70
2019-03-26T21:46:12.920Z,68.46
2019-03-26T21:48:41.389Z,68.46
2019-03-26T21:51:09.888Z,69.00
2019-03-26T21:53:38.377Z,69.21
2019-03-26T21:56:07.204Z,69.35
2019-03-26T21:58:35.899Z,69.47
2019-03-26T22:01:05.435Z,69.52
2019-03-26T22:03:33.892Z,69.67
2019-03-26T22:06:02.390Z,69.70
2019-03-26T22:08:30.840Z,70.00
2019-03-26T22:10:59.311Z,70.46
2019-03-26T22:13:27.804Z,70.71
2019-03-26T22:15:56.269Z,70.66
2019-03-26T22:18:24.730Z,70.77
2019-03-26T22:20:53.246Z,70.89
2019-03-26T22:23:21.729Z,70.99
2019-03-26T22:25:50.167Z,71.24
2019-03-26T22:28:18.688Z,71.49
2019-03-26T22:30:47.147Z,71.72
2019-03-26T22:33:15.612Z,72.65
2019-03-26T22:35:44.105Z,72.64
2019-03-26T22:38:12.562Z,72.47
2019-03-26T22:40:41.022Z,72.35
2019-03-26T22:43:09.541Z,72.43
2019-03-26T22:45:38.000Z,72.56
2019-03-26T22:48:06.458Z,72.85
2019-03-26T22:50:34.965Z,73.15
2019-03-26T22:53:03.446Z,73.39
2019-03-26T22:55:31.887Z,73.63
2019-03-26T22:58:00.446Z,74.08
2019-03-26T23:00:30.552Z,74.58
2019-03-26T23:02:59.375Z,74.66
2019-03-26T23:05:27.879Z,75.18
2019-03-26T23:07:56.337Z,75.36
2019-03-26T23:10:24.795Z,75.60
2019-03-26T23:12:53.294Z,75.63
2019-03-26T23:15:23.712Z,76.16
2019-03-26T23:17:52.238Z,76.64
2019-03-26T23:20:20.727Z,76.59
2019-03-26T23:22:49.300Z,76.43
2019-03-26T23:25:17.791Z,76.91
2019-03-26T23:27:46.282Z,77.06
2019-03-26T23:30:15.187Z,77.13
2019-03-26T23:32:43.637Z,77.05
2019-03-26T23:35:12.377Z,77.07
2019-03-26T23:37:40.836Z,76.93
2019-03-26T23:40:10.238Z,76.95
2019-03-26T23:42:38.730Z,77.10
2019-03-26T23:45:10.440Z,77.18
2019-03-26T23:47:38.913Z,77.42
2019-03-26T23:50:09.025Z,77.97
2019-03-26T23:52:37.852Z,78.47
2019-03-26T23:55:08.649Z,78.90
2019-03-26T23:57:37.728Z,79.21
